createdAt,value
2018-04-02T15:03:59.800Z,95143.86
2018-04-02T15:06:26.481Z,95147.75
2018-04-02T15:08:53.615Z,95139.12
2018-04-02T15:11:20.758Z,95148.99
2018-04-02T15:13:47.532Z,95144.73
2018-04-02T15:16:14.134Z,95139.55
2018-04-02T15:18:41.417Z,95146.94
2018-04-02T15:21:08.745Z,95157.09
2018-04-02T15:23:36.660Z,95151.83
2018-04-02T15:26:03.516Z,95152.56
2018-04-02T15:28:30.535Z,95162.27
2018-04-02T15:30:58.019Z,95161.06
2018-04-02T15:33:24.887Z,95165.39
2018-04-02T15:35:51.857Z,95163.95
2018-04-02T15:38:19.784Z,95171.59
2018-04-02T15:40:46.780Z,95169.50
2018-04-02T15:43:13.978Z,95180.52
2018-04-02T15:45:41.556Z,95182.42
2018-04-02T15:48:08.583Z,95186.97
2018-04-02T15:50:36.261Z,95188.22
2018-04-02T15:53:03.396Z,95185.48
2018-04-02T15:55:31.010Z,95189.86
2018-04-02T15:57:58.886Z,95191.89
2018-04-02T16:00:27.197Z,95186.05
2018-04-02T16:02:55.028Z,95189.86
2018-04-02T16:05:22.319Z,95193.05
2018-04-02T16:07:49.528Z,95193.74
2018-04-02T16:10:16.475Z,95195.91
2018-04-02T16:12:43.424Z,95200.33
2018-04-02T16:15:11.022Z,95205.41
2018-04-02T16:17:38.419Z,95198.96
2018-04-02T16:20:05.997Z,95202.43
2018-04-02T16:22:35.838Z,95203.91
2018-04-02T16:25:04.357Z,95204.55
2018-04-02T16:27:32.058Z,95208.06
2018-04-02T16:29:58.813Z,95208.47
2018-04-02T16:32:31.328Z,95206.72
2018-04-02T16:35:00.042Z,95208.67
2018-04-02T16:37:28.819Z,95204.38
2018-04-02T16:39:56.257Z,95207.16
2018-04-02T16:42:25.190Z,95209.85
2018-04-02T16:44:52.585Z,95214.28
2018-04-02T16:47:21.325Z,95211.91
2018-04-02T16:49:51.387Z,95220.37
2018-04-02T16:52:19.593Z,95214.03
2018-04-02T16:54:48.320Z,95221.94
2018-04-02T16:57:16.793Z,95226.61
2018-04-02T16:59:45.292Z,95225.34
2018-04-02T17:02:12.897Z,95226.92
2018-04-02T17:04:41.282Z,95224.94
2018-04-02T17:07:08.650Z,95225.16
2018-04-02T17:09:35.513Z,95223.75
2018-04-02T17:12:02.657Z,95228.00
2018-04-02T17:14:30.695Z,95227.37
2018-04-02T17:16:57.752Z,95231.57
2018-04-02T17:21:59.307Z,95241.38
2018-04-02T17:24:28.012Z,95244.13
2018-04-02T17:26:56.719Z,95254.52
2018-04-02T17:29:23.935Z,95261.73
2018-04-02T17:31:51.042Z,95269.59
2018-04-02T17:34:18.457Z,95264.18
2018-04-02T17:36:48.765Z,95269.36
2018-04-02T17:39:15.764Z,95267.64
2018-04-02T17:41:42.684Z,95270.83
2018-04-02T17:44:09.929Z,95283.85
2018-04-02T17:46:36.915Z,95283.26
2018-04-02T17:49:05.441Z,95286.95
2018-04-02T17:51:32.871Z,95289.80
2018-04-02T17:54:01.088Z,95295.77
2018-04-02T17:56:28.087Z,95303.19
2018-04-02T17:58:55.528Z,95308.67
2018-04-02T18:01:23.448Z,95312.83
2018-04-02T18:03:51.382Z,95315.53
2018-04-02T18:06:18.346Z,95319.61
2018-04-02T18:08:45.528Z,95324.89
2018-04-02T18:11:13.275Z,95321.27
2018-04-02T18:13:40.970Z,95324.30
2018-04-02T18:16:08.052Z,95322.23
2018-04-02T18:18:37.303Z,95328.91
2018-04-02T18:21:07.019Z,95328.76
2018-04-02T18:23:34.673Z,95334.78
2018-04-02T18:26:02.535Z,95340.03
2018-04-02T18:28:29.929Z,95336.65
2018-04-02T18:30:58.461Z,95342.97
2018-04-02T18:33:25.335Z,95351.22
2018-04-02T18:35:52.364Z,95352.88
2018-04-02T18:38:21.185Z,95353.61
2018-04-02T18:40:50.157Z,95356.36
2018-04-02T18:43:17.073Z,95362.97
2018-04-02T18:45:46.324Z,95361.76
2018-04-02T18:48:13.990Z,95363.64
2018-04-02T18:50:41.692Z,95369.84
2018-04-02T18:53:08.662Z,95374.83
2018-04-02T18:55:36.440Z,95368.70
2018-04-02T18:58:05.283Z,95374.00
2018-04-02T19:00:32.920Z,95381.95
2018-04-02T19:03:02.428Z,95383.14
2018-04-02T19:05:30.030Z,95376.51
2018-04-02T19:07:57.181Z,95386.07
2018-04-02T19:10:26.522Z,95384.36
2018-04-02T19:12:54.989Z,95389.69
2018-04-02T19:15:22.173Z,95396.42
2018-04-02T19:17:49.381Z,95399.97
2018-04-02T19:20:18.279Z,95402.56
2018-04-02T19:22:47.736Z,95418.44
2018-04-02T19:25:14.667Z,95409.70
2018-04-02T19:27:42.146Z,95415.21
2018-04-02T19:30:09.374Z,95421.69
2018-04-02T19:32:37.220Z,95429.38
2018-04-02T19:35:04.278Z,95415.84
2018-04-02T19:37:31.340Z,95416.00
2018-04-02T19:39:59.470Z,95423.59
2018-04-02T19:42:26.381Z,95425.29
2018-04-02T19:44:53.237Z,95426.45
2018-04-02T19:47:20.129Z,95420.77
2018-04-02T19:49:47.920Z,95422.27
2018-04-02T19:52:14.641Z,95417.69
2018-04-02T19:54:42.006Z,95425.95
2018-04-02T19:57:08.783Z,95432.89
2018-04-02T19:59:35.385Z,95437.14
2018-04-02T20:02:02.208Z,95439.67
2018-04-02T20:04:28.949Z,95439.68
2018-04-02T20:06:56.056Z,95441.05
2018-04-02T20:09:22.984Z,95446.27
2018-04-02T20:11:49.695Z,95447.06
2018-04-02T20:14:17.188Z,95446.83
2018-04-02T20:16:44.628Z,95453.13
2018-04-02T20:19:13.021Z,95456.78
2018-04-02T20:21:41.441Z,95452.85
2018-04-02T20:24:08.746Z,95455.53
2018-04-02T20:26:36.605Z,95460.83
2018-04-02T20:29:03.538Z,95464.21
2018-04-02T20:31:30.875Z,95474.45
2018-04-02T20:33:58.119Z,95480.02
2018-04-02T20:36:25.315Z,95479.27
2018-04-02T20:38:52.386Z,95479.95
2018-04-02T20:41:19.241Z,95477.49
2018-04-02T20:43:45.642Z,95481.55
2018-04-02T20:46:12.598Z,95488.06
2018-04-02T20:48:39.485Z,95487.44
2018-04-02T20:51:06.451Z,95488.70
2018-04-02T20:53:33.327Z,95490.89
2018-04-02T20:56:00.515Z,95490.86
2018-04-02T20:58:27.772Z,95493.02
2018-04-02T21:00:55.694Z,95493.71
2018-04-02T21:03:23.926Z,95497.47
2018-04-02T21:05:51.038Z,95498.80
2018-04-02T21:08:22.429Z,95505.88
2018-04-02T21:10:52.522Z,95508.03
2018-04-02T21:13:21.627Z,95510.34
2018-04-02T21:15:49.458Z,95513.73
2018-04-02T21:18:17.670Z,95515.31
2018-04-02T21:20:45.213Z,95523.48
2018-04-02T21:23:12.875Z,95524.89
2018-04-02T21:25:41.894Z,95525.59
2018-04-02T21:28:09.315Z,95528.75
2018-04-02T21:30:37.996Z,95528.33
2018-04-02T21:33:05.240Z,95532.53
2018-04-02T21:35:32.386Z,95535.20
2018-04-02T21:37:59.887Z,95531.56
2018-04-02T21:40:28.596Z,95533.95
2018-04-02T21:42:55.775Z,95537.58
2018-04-02T21:45:22.612Z,95539.47
2018-04-02T21:47:49.281Z,95541.81
2018-04-02T21:50:19.610Z,95541.70
2018-04-02T21:52:46.879Z,95536.84
2018-04-02T21:55:13.770Z,95543.84
2018-04-02T21:57:40.663Z,95539.31
2018-04-02T22:00:08.919Z,95536.94
2018-04-02T22:02:36.491Z,95550.16
2018-04-02T22:05:03.324Z,95545.58
2018-04-02T22:07:32.041Z,95544.89
2018-04-02T22:09:59.746Z,95550.44
2018-04-02T22:12:27.039Z,95549.81
2018-04-02T22:14:54.975Z,95550.95
2018-04-02T22:17:22.674Z,95550.63
2018-04-02T22:19:50.361Z,95559.25
2018-04-02T22:22:17.870Z,95562.53
2018-04-02T22:24:45.385Z,95562.80
2018-04-02T22:27:12.756Z,95558.69
2018-04-02T22:29:40.168Z,95556.95
2018-04-02T22:32:08.429Z,95562.70
2018-04-02T22:34:36.524Z,95563.73
2018-04-02T22:37:04.184Z,95565.01
2018-04-02T22:39:32.218Z,95574.81
2018-04-02T22:41:59.742Z,95567.48
2018-04-02T22:44:27.273Z,95571.23
2018-04-02T22:46:55.269Z,95578.28
2018-04-02T22:49:22.480Z,95581.33
2018-04-02T22:51:49.611Z,95580.17
2018-04-02T22:54:16.747Z,95577.81
2018-04-02T22:56:44.477Z,95573.84
2018-04-02T22:59:11.289Z,95574.70
2018-04-02T23:01:38.642Z,95578.42
2018-04-02T23:04:05.788Z,95576.92
2018-04-02T23:06:33.058Z,95575.82
2018-04-02T23:09:00.560Z,95582.12
2018-04-02T23:11:28.254Z,95574.35
2018-04-02T23:13:55.011Z,95571.94
2018-04-02T23:16:22.331Z,95578.47
2018-04-02T23:18:49.384Z,95579.45
2018-04-02T23:21:16.089Z,95581.61
2018-04-02T23:23:43.214Z,95581.49
2018-04-02T23:26:10.356Z,95573.45
2018-04-02T23:28:37.568Z,95582.73
2018-04-02T23:31:04.743Z,95582.55
2018-04-02T23:33:32.185Z,95581.58
2018-04-02T23:35:59.854Z,95582.31
2018-04-02T23:38:26.893Z,95579.59
2018-04-02T23:40:54.239Z,95575.91
2018-04-02T23:43:21.811Z,95578.09
2018-04-02T23:45:48.858Z,95577.48
2018-04-02T23:48:17.174Z,95591.27
2018-04-02T23:50:44.583Z,95587.86
2018-04-02T23:53:11.712Z,95595.80
2018-04-02T23:55:39.387Z,95586.95
2018-04-02T23:58:06.303Z,95595.08
